This is the latest recevied weather packets stored in our database for station/object BG5HLN-13. If no packets are shown the sender has not sent any weather packets the latest 10 day(s).
| Time | Temp. | Humidity | Pressure | Rain* | Wind** | Luminosity | Snow |
|---|---|---|---|---|---|---|---|
| 1777628955 | 23.33° C | 60% | 1012.9 hPa | 0 mm | - | - | - |
| 1777628357 | 23.89° C | 50% | 1012.7 hPa | 0 mm | - | - | - |
| 1777628355 | 23.89° C | 50% | 1012.7 hPa | 0 mm | - | - | - |
| 1777627754 | 23.89° C | 49% | 1012.6 hPa | 0 mm | - | - | - |
| 1777627155 | 24.44° C | 50% | 1012.8 hPa | 0 mm | - | - | - |
| 1777626553 | 24.44° C | 49% | 1012.5 hPa | 0 mm | - | - | - |
| 1777625954 | 24.44° C | 49% | 1012.4 hPa | 0 mm | - | - | - |
| 1777625354 | 24.44° C | 48% | 1012.3 hPa | 0 mm | - | - | - |
| 1777624754 | 24.44° C | 48% | 1012.4 hPa | 0 mm | - | - | - |
| 1777624155 | 24.44° C | 46% | 1012.4 hPa | 0 mm | - | - | - |
| 1777623554 | 24.44° C | 43% | 1012.4 hPa | 0 mm | - | - | - |
| 1777622954 | 24.44° C | 43% | 1012.6 hPa | 0 mm | - | - | - |
| 1777622353 | 25° C | 42% | 1012.8 hPa | 0 mm | - | - | - |
| 1777621754 | 25° C | 43% | 1013 hPa | 0 mm | - | - | - |
| 1777621155 | 25° C | 41% | 1013.1 hPa | 0 mm | - | - | - |
| 1777620554 | 25° C | 45% | 1013.4 hPa | 0 mm | - | - | - |
| 1777619954 | 25.56° C | 48% | 1013.3 hPa | 0 mm | - | - | - |
| 1777619353 | 25° C | 48% | 1013.3 hPa | 0 mm | - | - | - |
| 1777618754 | 25° C | 46% | 1013.4 hPa | 0 mm | - | - | - |
| 1777618154 | 25° C | 47% | 1013.5 hPa | 0 mm | - | - | - |
| 1777617554 | 25.56° C | 49% | 1013.7 hPa | 0 mm | - | - | - |
| 1777616953 | 25.56° C | 52% | 1013.9 hPa | 0 mm | - | - | - |
| 1777616353 | 25.56° C | 51% | 1013.8 hPa | 0 mm | - | - | - |
| 1777615754 | 26.11° C | 51% | 1014 hPa | 0 mm | - | - | - |
| 1777615153 | 26.11° C | 51% | 1014.2 hPa | 0 mm | - | - | - |
* Rain latest hour (hover to see other rain measurements)
** Current wind speed in m/s (hover to see current wind gust speed)